Time;durP1;ratioP1;P1;durP2;ratioP2;P2;SDS_P1;SDS_P2;PMS_P1;PMS_P2;Temp;Humidity;BMP_temperature;BMP_pressure;BME280_temperature;BME280_humidity;BME280_pressure;Samples;Min_cycle;Max_cycle;Signal;HPM_P1;HPM_P2
2023/04/11 00:02:19;;;;;;;;;;;14.60;69.30;;;;;;5054850;28;19982;-70
2023/04/11 00:04:47;;;;;;;;;;;14.60;69.40;;;;;;5050273;28;20019;-72
2023/04/11 00:07:14;;;;;;;;;;;14.50;69.70;;;;;;5051918;28;19932;-72
2023/04/11 00:09:40;;;;;;;;;;;14.50;70.00;;;;;;5046738;28;19932;-70
2023/04/11 00:12:07;;;;;;;;;;;14.50;70.20;;;;;;5048917;28;19979;-70
2023/04/11 00:14:33;;;;;;;;;;;14.50;70.40;;;;;;5045326;28;20171;-70
2023/04/11 00:17:00;;;;;;;;;;;14.40;71.50;;;;;;5056498;28;19924;-72
2023/04/11 00:19:27;;;;;;;;;;;14.40;72.30;;;;;;5052043;28;19999;-71
2023/04/11 00:21:56;;;;;;;;;;;14.40;72.40;;;;;;5053545;28;19932;-72
2023/04/11 00:24:23;;;;;;;;;;;14.40;73.20;;;;;;5045706;28;20002;-72
2023/04/11 00:26:50;;;;;;;;;;;14.40;74.10;;;;;;5050999;28;19932;-69
2023/04/11 00:29:16;;;;;;;;;;;14.30;74.70;;;;;;5052428;28;19932;-71
2023/04/11 00:31:43;;;;;;;;;;;14.30;75.20;;;;;;5051247;28;19932;-72
2023/04/11 00:34:09;;;;;;;;;;;14.30;76.10;;;;;;5053054;28;20115;-71
2023/04/11 00:36:36;;;;;;;;;;;14.30;76.80;;;;;;5053434;28;19933;-73
2023/04/11 00:39:04;;;;;;;;;;;14.20;77.40;;;;;;5052194;28;20496;-71
2023/04/11 00:41:30;;;;;;;;;;;14.20;78.00;;;;;;5059484;28;19929;-71
2023/04/11 00:43:57;;;;;;;;;;;14.20;77.70;;;;;;5058790;28;19932;-69
2023/04/11 00:46:24;;;;;;;;;;;14.10;78.30;;;;;;5055064;28;20699;-72
2023/04/11 00:48:51;;;;;;;;;;;14.00;78.10;;;;;;5053134;28;19939;-72
2023/04/11 00:51:17;;;;;;;;;;;14.10;78.80;;;;;;5060969;28;19935;-71
2023/04/11 00:53:44;;;;;;;;;;;14.00;79.20;;;;;;5048470;28;19933;-72
2023/04/11 00:56:12;;;;;;;;;;;14.00;79.50;;;;;;5050441;28;19936;-73
2023/04/11 00:58:39;;;;;;;;;;;14.00;80.00;;;;;;5056557;28;19932;-72
2023/04/11 01:01:08;;;;;;;;;;;13.90;80.50;;;;;;5054628;28;20468;-71
2023/04/11 01:03:34;;;;;;;;;;;13.90;81.10;;;;;;5052896;28;19933;-70
2023/04/11 01:06:01;;;;;;;;;;;13.90;81.80;;;;;;5058145;28;19928;-68
2023/04/11 01:08:27;;;;;;;;;;;13.90;82.40;;;;;;5053702;28;19959;-72
2023/04/11 01:10:54;;;;;;;;;;;13.80;82.50;;;;;;5053285;28;19936;-72
2023/04/11 01:13:22;;;;;;;;;;;13.80;82.60;;;;;;5054897;28;20010;-69
2023/04/11 01:15:49;;;;;;;;;;;13.80;82.80;;;;;;5053869;28;19929;-71
2023/04/11 01:18:15;;;;;;;;;;;13.70;82.90;;;;;;5055949;28;19928;-71
2023/04/11 01:20:42;;;;;;;;;;;13.70;83.00;;;;;;5059696;28;19990;-74
2023/04/11 01:23:09;;;;;;;;;;;13.70;83.00;;;;;;5050516;28;20398;-74
2023/04/11 01:25:37;;;;;;;;;;;13.70;83.10;;;;;;5048651;28;20024;-72
2023/04/11 01:28:03;;;;;;;;;;;13.60;83.20;;;;;;5051467;28;19928;-70
2023/04/11 01:30:30;;;;;;;;;;;13.60;83.20;;;;;;5057300;28;19962;-73
2023/04/11 01:32:57;;;;;;;;;;;13.60;83.30;;;;;;5052335;28;19928;-72
2023/04/11 01:35:23;;;;;;;;;;;13.60;83.40;;;;;;5053974;28;19924;-73
2023/04/11 01:37:50;;;;;;;;;;;13.60;83.60;;;;;;5050166;28;19940;-72
2023/04/11 01:40:17;;;;;;;;;;;13.50;83.80;;;;;;5052603;28;19936;-74
2023/04/11 01:42:46;;;;;;;;;;;13.50;84.10;;;;;;5050644;28;19936;-74
2023/04/11 01:45:13;;;;;;;;;;;13.50;84.30;;;;;;5050651;28;19929;-73
2023/04/11 01:47:39;;;;;;;;;;;13.40;84.20;;;;;;5045745;28;19928;-72
2023/04/11 01:50:07;;;;;;;;;;;13.40;84.00;;;;;;5060403;28;20542;-72
2023/04/11 01:52:33;;;;;;;;;;;13.40;83.80;;;;;;5053917;28;20063;-71
2023/04/11 01:55:00;;;;;;;;;;;13.40;83.80;;;;;;5061428;28;19970;-73
2023/04/11 01:57:26;;;;;;;;;;;13.40;83.80;;;;;;5061275;28;20457;-74
2023/04/11 01:59:54;;;;;;;;;;;13.40;84.00;;;;;;5060132;28;19930;-70
2023/04/11 02:02:21;;;;;;;;;;;13.30;83.90;;;;;;5057903;28;19978;-71
2023/04/11 02:04:47;;;;;;;;;;;13.30;84.00;;;;;;5062410;28;19940;-71
2023/04/11 02:07:14;;;;;;;;;;;13.30;84.00;;;;;;5056587;28;19932;-72
2023/04/11 02:09:40;;;;;;;;;;;13.20;84.00;;;;;;5052274;28;20329;-73
2023/04/11 02:12:07;;;;;;;;;;;13.20;83.90;;;;;;5051285;28;19933;-73
2023/04/11 02:14:40;;;;;;;;;;;13.20;83.90;;;;;;5053038;28;19955;-72
2023/04/11 02:17:09;;;;;;;;;;;13.20;84.00;;;;;;5056868;28;20021;-73
2023/04/11 02:19:36;;;;;;;;;;;13.20;84.10;;;;;;5062480;28;20027;-72
2023/04/11 02:22:02;;;;;;;;;;;13.10;84.20;;;;;;5068409;28;19979;-71
2023/04/11 02:24:29;;;;;;;;;;;13.10;84.30;;;;;;5060632;28;19929;-72
2023/04/11 02:26:56;;;;;;;;;;;13.10;84.30;;;;;;5062881;28;19937;-73
2023/04/11 02:29:22;;;;;;;;;;;13.10;84.30;;;;;;5064833;28;19971;-72
2023/04/11 02:31:49;;;;;;;;;;;13.00;84.30;;;;;;5045746;28;19951;-70
2023/04/11 02:37:20;;;;;;;;;;;13.00;84.40;;;;;;5043184;28;20006;-70
2023/04/11 02:39:46;;;;;;;;;;;13.00;84.50;;;;;;5060120;28;19941;-71
2023/04/11 02:42:13;;;;;;;;;;;13.00;84.50;;;;;;5060385;28;19937;-74
2023/04/11 02:44:39;;;;;;;;;;;12.90;84.60;;;;;;5049698;28;19951;-73
2023/04/11 02:47:06;;;;;;;;;;;12.90;84.70;;;;;;5054790;28;19932;-71
2023/04/11 02:49:32;;;;;;;;;;;12.90;84.90;;;;;;5057936;28;19936;-70
2023/04/11 02:51:59;;;;;;;;;;;12.80;85.20;;;;;;5048538;28;19940;-71
2023/04/11 02:54:27;;;;;;;;;;;12.80;85.50;;;;;;5062957;28;20327;-73
2023/04/11 02:56:54;;;;;;;;;;;12.80;85.40;;;;;;5061178;28;19928;-72
2023/04/11 02:59:21;;;;;;;;;;;12.80;85.60;;;;;;5056183;28;19933;-73
2023/04/11 03:01:47;;;;;;;;;;;12.80;85.70;;;;;;5055050;28;19936;-74
2023/04/11 03:04:14;;;;;;;;;;;12.70;85.80;;;;;;5057600;28;19936;-73
2023/04/11 03:06:41;;;;;;;;;;;12.70;85.90;;;;;;5053416;28;19935;-73
2023/04/11 03:09:07;;;;;;;;;;;12.70;86.00;;;;;;5054652;28;19935;-70
2023/04/11 03:11:35;;;;;;;;;;;12.70;86.10;;;;;;5061282;28;19932;-72
2023/04/11 03:14:02;;;;;;;;;;;12.60;86.10;;;;;;5051795;28;19933;-70
2023/04/11 03:16:28;;;;;;;;;;;12.60;86.20;;;;;;5055109;28;19972;-73
2023/04/11 03:18:55;;;;;;;;;;;12.60;86.30;;;;;;5059309;28;19928;-73
2023/04/11 03:21:21;;;;;;;;;;;12.50;86.30;;;;;;5055501;28;20311;-72
2023/04/11 03:23:48;;;;;;;;;;;12.60;86.40;;;;;;5059240;28;19932;-73
2023/04/11 03:26:14;;;;;;;;;;;12.50;86.40;;;;;;5059834;28;19929;-73
2023/04/11 03:28:42;;;;;;;;;;;12.50;86.60;;;;;;5059072;28;19932;-74
2023/04/11 03:31:10;;;;;;;;;;;12.50;86.60;;;;;;5058901;28;19935;-73
2023/04/11 03:33:37;;;;;;;;;;;12.40;86.70;;;;;;5048041;28;20436;-72
2023/04/11 03:36:03;;;;;;;;;;;12.40;87.40;;;;;;5054343;28;20357;-73
2023/04/11 03:38:30;;;;;;;;;;;12.40;86.60;;;;;;5042373;28;20445;-74
2023/04/11 03:40:56;;;;;;;;;;;12.40;86.70;;;;;;5041650;28;20570;-73
2023/04/11 03:43:23;;;;;;;;;;;12.40;87.00;;;;;;5041599;28;20026;-72
2023/04/11 03:45:52;;;;;;;;;;;12.40;87.10;;;;;;5040648;28;19936;-73
2023/04/11 03:48:18;;;;;;;;;;;12.30;87.30;;;;;;5041579;28;19939;-72
2023/04/11 03:50:45;;;;;;;;;;;12.30;88.10;;;;;;5042259;28;19932;-71
2023/04/11 03:53:11;;;;;;;;;;;12.30;87.50;;;;;;5040213;28;19928;-73
2023/04/11 03:55:38;;;;;;;;;;;12.20;87.80;;;;;;5041463;28;21106;-73
2023/04/11 03:58:05;;;;;;;;;;;12.20;87.90;;;;;;5041889;28;19932;-72
2023/04/11 04:00:32;;;;;;;;;;;12.20;88.10;;;;;;5040093;28;19942;-70
2023/04/11 04:02:59;;;;;;;;;;;12.20;88.30;;;;;;5041823;28;19983;-72
2023/04/11 04:05:26;;;;;;;;;;;12.20;88.30;;;;;;5040814;28;19928;-73
2023/04/11 04:07:53;;;;;;;;;;;12.20;88.40;;;;;;5039994;28;19977;-70
2023/04/11 04:10:19;;;;;;;;;;;12.10;88.50;;;;;;5041640;28;19928;-72
2023/04/11 04:12:46;;;;;;;;;;;12.10;88.60;;;;;;5042317;28;19933;-71
2023/04/11 04:15:13;;;;;;;;;;;12.10;88.70;;;;;;5040193;28;19937;-73
2023/04/11 04:17:40;;;;;;;;;;;12.10;88.80;;;;;;5039844;28;21648;-73
2023/04/11 04:20:09;;;;;;;;;;;12.10;88.80;;;;;;5041890;28;20348;-72
2023/04/11 04:22:36;;;;;;;;;;;12.00;88.80;;;;;;5040635;28;19932;-73
2023/04/11 04:25:03;;;;;;;;;;;11.90;88.90;;;;;;5040468;28;19940;-70
2023/04/11 04:27:29;;;;;;;;;;;11.90;89.10;;;;;;5040654;28;20023;-71
2023/04/11 04:29:56;;;;;;;;;;;12.30;89.50;;;;;;5041956;28;21039;-73
2023/04/11 04:32:23;;;;;;;;;;;11.90;89.30;;;;;;5040796;28;20311;-70
2023/04/11 04:34:53;;;;;;;;;;;11.90;89.50;;;;;;5039157;28;20030;-71
2023/04/11 04:37:22;;;;;;;;;;;11.80;89.50;;;;;;5044856;28;20685;-70
2023/04/11 04:39:52;;;;;;;;;;;11.80;89.50;;;;;;5053077;28;19929;-71
2023/04/11 04:42:20;;;;;;;;;;;11.80;89.50;;;;;;5049063;28;19933;-70
2023/04/11 04:44:46;;;;;;;;;;;11.80;89.50;;;;;;5047062;28;19933;-74
2023/04/11 04:47:13;;;;;;;;;;;11.80;89.50;;;;;;5052403;28;19955;-73
2023/04/11 04:49:39;;;;;;;;;;;11.80;89.40;;;;;;5055160;28;19926;-73
2023/04/11 04:52:06;;;;;;;;;;;11.80;89.30;;;;;;5047930;28;19933;-72
2023/04/11 04:54:34;;;;;;;;;;;11.70;89.10;;;;;;5049390;28;20462;-71
2023/04/11 04:57:01;;;;;;;;;;;11.70;89.10;;;;;;5052564;28;19928;-71
2023/04/11 04:59:28;;;;;;;;;;;11.70;89.10;;;;;;5053156;28;19940;-73
2023/04/11 05:01:54;;;;;;;;;;;11.70;89.00;;;;;;5051409;28;19934;-72
2023/04/11 05:04:21;;;;;;;;;;;11.60;88.90;;;;;;5050815;28;20474;-71
2023/04/11 05:06:48;;;;;;;;;;;11.70;88.80;;;;;;5055392;28;19928;-72
2023/04/11 05:09:15;;;;;;;;;;;11.60;88.70;;;;;;5054506;28;19978;-73
2023/04/11 05:11:43;;;;;;;;;;;11.60;88.60;;;;;;5049382;28;19928;-73
2023/04/11 05:14:09;;;;;;;;;;;11.60;88.60;;;;;;5059836;28;20005;-73
2023/04/11 05:16:37;;;;;;;;;;;11.50;88.40;;;;;;5051556;28;19951;-73
2023/04/11 05:19:03;;;;;;;;;;;11.60;88.40;;;;;;5051432;28;19952;-70
2023/04/11 05:21:30;;;;;;;;;;;11.60;88.30;;;;;;5050594;28;19928;-74
2023/04/11 05:23:56;;;;;;;;;;;11.50;88.20;;;;;;5054869;28;19938;-75
2023/04/11 05:26:23;;;;;;;;;;;11.50;88.10;;;;;;5053167;28;19936;-72
2023/04/11 05:28:51;;;;;;;;;;;11.50;88.00;;;;;;5061096;28;20613;-70
2023/04/11 05:31:17;;;;;;;;;;;11.50;87.90;;;;;;5051089;28;19933;-72
2023/04/11 05:33:44;;;;;;;;;;;11.50;87.80;;;;;;5056473;28;19929;-74
2023/04/11 05:36:12;;;;;;;;;;;11.60;87.80;;;;;;5056375;28;19959;-71
2023/04/11 05:38:39;;;;;;;;;;;11.50;87.70;;;;;;5055510;28;19928;-72
2023/04/11 05:41:06;;;;;;;;;;;11.40;87.70;;;;;;5056946;28;19928;-71
2023/04/11 05:43:32;;;;;;;;;;;11.40;87.70;;;;;;5057766;28;19932;-69
2023/04/11 05:46:00;;;;;;;;;;;11.40;87.70;;;;;;5054449;28;19932;-71
2023/04/11 05:48:27;;;;;;;;;;;11.40;87.80;;;;;;5059902;28;19982;-70
2023/04/11 05:50:53;;;;;;;;;;;11.40;87.90;;;;;;5060214;28;19939;-73
2023/04/11 05:53:20;;;;;;;;;;;11.40;87.90;;;;;;5044384;28;19929;-71
2023/04/11 05:55:47;;;;;;;;;;;11.40;88.00;;;;;;5055020;28;19932;-72
2023/04/11 05:58:13;;;;;;;;;;;11.40;88.00;;;;;;5060707;28;19928;-72
2023/04/11 06:00:40;;;;;;;;;;;11.40;88.00;;;;;;5058194;28;19928;-72
2023/04/11 06:03:08;;;;;;;;;;;11.30;88.00;;;;;;5053774;28;20491;-71
2023/04/11 06:05:34;;;;;;;;;;;11.30;88.00;;;;;;5052607;28;20535;-73
2023/04/11 06:08:02;;;;;;;;;;;11.30;88.10;;;;;;5049485;28;19929;-72
2023/04/11 06:10:28;;;;;;;;;;;11.30;88.10;;;;;;5056148;28;19954;-70
2023/04/11 06:12:55;;;;;;;;;;;11.30;88.30;;;;;;5057475;28;19932;-73
2023/04/11 06:15:22;;;;;;;;;;;11.30;88.30;;;;;;5048048;28;19981;-72
2023/04/11 06:17:48;;;;;;;;;;;11.30;88.40;;;;;;5054874;28;19964;-69
2023/04/11 06:20:16;;;;;;;;;;;11.30;88.60;;;;;;5058924;28;19932;-72
2023/04/11 06:22:45;;;;;;;;;;;11.30;88.70;;;;;;5052032;28;19936;-72
2023/04/11 06:25:11;;;;;;;;;;;11.40;88.80;;;;;;5055087;28;20350;-73
2023/04/11 06:27:38;;;;;;;;;;;11.20;88.80;;;;;;5058267;28;19928;-73
2023/04/11 06:30:05;;;;;;;;;;;11.20;88.90;;;;;;5059234;28;20377;-70
2023/04/11 06:32:32;;;;;;;;;;;11.20;89.00;;;;;;5060762;28;20336;-72
2023/04/11 06:34:58;;;;;;;;;;;11.20;89.10;;;;;;5058615;28;20429;-73
2023/04/11 06:37:26;;;;;;;;;;;11.10;89.20;;;;;;5058934;28;19932;-73
2023/04/11 06:39:52;;;;;;;;;;;11.20;89.30;;;;;;5061610;28;20029;-72
2023/04/11 06:42:19;;;;;;;;;;;11.20;89.40;;;;;;5063410;28;19928;-71
2023/04/11 06:44:46;;;;;;;;;;;11.10;89.30;;;;;;5060947;28;20311;-73
2023/04/11 06:47:13;;;;;;;;;;;11.10;89.30;;;;;;5060955;28;19928;-72
2023/04/11 06:49:40;;;;;;;;;;;11.10;89.30;;;;;;5055786;28;19987;-73
2023/04/11 06:52:07;;;;;;;;;;;11.10;89.30;;;;;;5057270;28;19933;-69
2023/04/11 06:54:35;;;;;;;;;;;11.10;89.40;;;;;;5060903;28;20066;-70
2023/04/11 06:57:02;;;;;;;;;;;11.10;89.40;;;;;;5061316;28;20459;-71
2023/04/11 06:59:28;;;;;;;;;;;11.10;89.40;;;;;;5054067;28;20013;-71
2023/04/11 07:01:55;;;;;;;;;;;11.10;89.40;;;;;;5061542;28;19932;-73
2023/04/11 07:04:21;;;;;;;;;;;11.10;89.40;;;;;;5055474;28;20463;-72
2023/04/11 07:06:48;;;;;;;;;;;11.10;89.30;;;;;;5053012;28;20726;-73
2023/04/11 07:09:14;;;;;;;;;;;11.10;89.30;;;;;;5055342;28;19928;-73
2023/04/11 07:11:43;;;;;;;;;;;11.10;89.20;;;;;;5053611;28;19932;-72
2023/04/11 07:14:09;;;;;;;;;;;11.10;89.20;;;;;;5055179;28;19928;-71
2023/04/11 07:16:36;;;;;;;;;;;11.10;89.20;;;;;;5053665;28;19932;-72
2023/04/11 07:19:02;;;;;;;;;;;11.10;89.30;;;;;;5058850;28;19928;-70
2023/04/11 07:21:31;;;;;;;;;;;11.10;89.30;;;;;;5053922;28;19935;-70
2023/04/11 07:23:59;;;;;;;;;;;11.10;89.30;;;;;;5052799;28;20062;-71
2023/04/11 07:26:30;;;;;;;;;;;11.10;89.30;;;;;;5060178;28;19929;-72
2023/04/11 07:28:58;;;;;;;;;;;11.10;89.20;;;;;;5051293;28;19939;-73
2023/04/11 07:31:26;;;;;;;;;;;11.00;89.10;;;;;;5048667;28;20012;-73
2023/04/11 07:33:52;;;;;;;;;;;11.10;89.00;;;;;;5055319;28;19932;-71
2023/04/11 07:36:19;;;;;;;;;;;11.10;89.00;;;;;;5057277;28;19982;-71
2023/04/11 07:38:45;;;;;;;;;;;11.10;89.00;;;;;;5047682;28;19932;-73
2023/04/11 07:41:12;;;;;;;;;;;11.10;88.90;;;;;;5052083;28;19936;-73
2023/04/11 07:43:39;;;;;;;;;;;11.10;88.80;;;;;;5052242;28;19936;-73
2023/04/11 07:46:07;;;;;;;;;;;11.10;88.60;;;;;;5053687;28;20031;-73
2023/04/11 07:48:34;;;;;;;;;;;11.10;88.30;;;;;;5047162;28;19936;-70
2023/04/11 07:51:00;;;;;;;;;;;11.10;88.10;;;;;;5055522;28;19950;-73
2023/04/11 07:53:27;;;;;;;;;;;11.10;87.90;;;;;;5045276;28;20465;-71
2023/04/11 07:55:53;;;;;;;;;;;11.10;87.70;;;;;;5046936;28;19955;-73
2023/04/11 07:58:21;;;;;;;;;;;11.10;87.50;;;;;;5054840;28;19933;-70
2023/04/11 08:00:49;;;;;;;;;;;11.20;87.30;;;;;;5055026;28;20401;-71
2023/04/11 08:03:17;;;;;;;;;;;11.20;87.20;;;;;;5052807;28;19929;-73
2023/04/11 08:05:43;;;;;;;;;;;11.20;87.10;;;;;;5050779;28;19933;-73
2023/04/11 08:08:10;;;;;;;;;;;11.20;86.90;;;;;;5049651;28;19935;-73
2023/04/11 08:10:37;;;;;;;;;;;11.20;86.80;;;;;;5049100;28;19929;-72
2023/04/11 08:13:03;;;;;;;;;;;11.20;86.70;;;;;;5056786;28;19974;-74
2023/04/11 08:15:30;;;;;;;;;;;11.20;86.70;;;;;;5050711;28;19928;-70
2023/04/11 08:17:58;;;;;;;;;;;11.30;86.70;;;;;;5059385;28;20031;-74
2023/04/11 08:20:26;;;;;;;;;;;11.30;86.50;;;;;;5051222;28;19929;-73
2023/04/11 08:22:52;;;;;;;;;;;11.30;86.40;;;;;;5048828;28;19932;-70
2023/04/11 08:25:21;;;;;;;;;;;11.30;86.30;;;;;;5056598;28;19929;-70
2023/04/11 08:27:48;;;;;;;;;;;11.30;86.20;;;;;;5046869;28;19943;-73
2023/04/11 08:30:15;;;;;;;;;;;11.30;86.00;;;;;;5054252;28;20073;-74
2023/04/11 08:32:42;;;;;;;;;;;11.30;85.70;;;;;;5049729;28;19929;-73
2023/04/11 08:35:09;;;;;;;;;;;11.20;85.00;;;;;;5052098;28;19932;-72
2023/04/11 08:37:37;;;;;;;;;;;11.30;84.70;;;;;;5047598;28;19928;-73
2023/04/11 08:40:05;;;;;;;;;;;11.20;84.30;;;;;;5054020;28;19955;-70
2023/04/11 08:42:32;;;;;;;;;;;11.30;84.30;;;;;;5054199;28;19931;-69
2023/04/11 08:44:59;;;;;;;;;;;11.30;84.10;;;;;;5057735;28;19932;-73
2023/04/11 08:47:26;;;;;;;;;;;11.30;84.00;;;;;;5051756;28;19932;-73
2023/04/11 08:49:53;;;;;;;;;;;11.30;84.00;;;;;;5060671;28;19928;-73
2023/04/11 08:52:20;;;;;;;;;;;11.30;83.80;;;;;;5046858;28;19929;-73
2023/04/11 08:54:48;;;;;;;;;;;11.30;83.50;;;;;;5047508;28;19929;-71
2023/04/11 08:57:20;;;;;;;;;;;11.40;83.10;;;;;;5057656;28;19933;-73
2023/04/11 08:59:48;;;;;;;;;;;11.40;82.30;;;;;;5049512;28;19967;-69
2023/04/11 09:02:15;;;;;;;;;;;11.40;82.10;;;;;;5055466;28;19929;-73
2023/04/11 09:04:42;;;;;;;;;;;11.50;81.70;;;;;;5060108;28;19932;-72
2023/04/11 09:07:10;;;;;;;;;;;11.50;80.90;;;;;;5048399;28;19932;-71
2023/04/11 09:09:38;;;;;;;;;;;11.60;80.10;;;;;;5056649;28;19929;-73
2023/04/11 09:12:07;;;;;;;;;;;11.70;79.20;;;;;;5048322;28;19936;-71
2023/04/11 09:14:34;;;;;;;;;;;11.70;78.80;;;;;;5053805;28;19932;-70
2023/04/11 09:17:03;;;;;;;;;;;11.80;78.10;;;;;;5046620;28;19929;-69
2023/04/11 09:19:30;;;;;;;;;;;11.80;77.90;;;;;;5051255;28;19994;-72
2023/04/11 09:21:59;;;;;;;;;;;11.90;77.90;;;;;;5048264;28;19929;-73
2023/04/11 09:24:25;;;;;;;;;;;12.00;77.90;;;;;;5054432;28;19936;-72
2023/04/11 09:27:05;;;;;;;;;;;12.00;77.70;;;;;;5044363;28;19928;-70
2023/04/11 09:29:37;;;;;;;;;;;12.20;77.00;;;;;;5045556;28;19933;-69
2023/04/11 09:32:04;;;;;;;;;;;12.10;76.30;;;;;;5046641;28;20440;-69
2023/04/11 09:34:31;;;;;;;;;;;12.10;76.10;;;;;;5048978;28;19963;-70
2023/04/11 09:36:58;;;;;;;;;;;12.10;75.70;;;;;;5047556;28;19936;-73
2023/04/11 09:39:27;;;;;;;;;;;12.10;75.50;;;;;;5047132;28;19990;-70
2023/04/11 09:41:53;;;;;;;;;;;12.10;75.40;;;;;;5050187;28;19932;-72
2023/04/11 09:44:21;;;;;;;;;;;12.10;75.10;;;;;;5045650;28;19936;-69
2023/04/11 09:46:58;;;;;;;;;;;12.10;74.80;;;;;;5049918;28;19978;-73
2023/04/11 09:49:25;;;;;;;;;;;12.10;74.90;;;;;;5058038;28;19928;-69
2023/04/11 09:51:52;;;;;;;;;;;12.10;75.10;;;;;;5047772;28;19963;-72
2023/04/11 09:54:20;;;;;;;;;;;12.10;75.20;;;;;;5041245;28;19929;-70
2023/04/11 09:56:46;;;;;;;;;;;12.10;75.10;;;;;;5053969;28;20406;-70
2023/04/11 09:59:14;;;;;;;;;;;12.20;74.60;;;;;;5058278;28;20481;-69
2023/04/11 10:01:41;;;;;;;;;;;12.20;74.20;;;;;;5051989;28;20337;-72
2023/04/11 10:04:09;;;;;;;;;;;12.20;74.30;;;;;;5056121;28;19928;-69
2023/04/11 10:06:40;;;;;;;;;;;12.20;74.10;;;;;;5053007;28;20298;-71
2023/04/11 10:09:08;;;;;;;;;;;12.30;73.40;;;;;;5053866;28;19929;-70
2023/04/11 10:11:34;;;;;;;;;;;12.30;72.40;;;;;;5060650;28;19959;-70
2023/04/11 10:14:01;;;;;;;;;;;12.30;71.90;;;;;;5053577;28;19939;-70
2023/04/11 10:16:31;;;;;;;;;;;12.40;70.40;;;;;;5056340;28;19932;-73
2023/04/11 10:19:16;;;;;;;;;;;12.40;70.50;;;;;;5054348;28;20543;-71
2023/04/11 10:21:45;;;;;;;;;;;12.40;70.00;;;;;;5056820;28;19928;-70
2023/04/11 10:24:12;;;;;;;;;;;12.40;69.70;;;;;;5046356;28;20315;-71
2023/04/11 10:26:48;;;;;;;;;;;12.40;69.40;;;;;;5061191;28;20672;-72
2023/04/11 10:29:39;;;;;;;;;;;12.40;69.50;;;;;;5056446;28;20299;-72
2023/04/11 10:32:09;;;;;;;;;;;12.40;70.10;;;;;;5059438;28;19935;-70
2023/04/11 10:34:37;;;;;;;;;;;12.40;69.50;;;;;;5053493;28;20460;-71
2023/04/11 10:37:07;;;;;;;;;;;12.40;69.80;;;;;;5055238;28;19929;-71
2023/04/11 10:39:52;;;;;;;;;;;12.40;70.70;;;;;;5049461;28;19928;-69
2023/04/11 10:42:28;;;;;;;;;;;12.50;71.30;;;;;;5050769;28;20314;-70
2023/04/11 10:45:13;;;;;;;;;;;12.50;71.90;;;;;;5051422;28;19929;-72
2023/04/11 10:47:40;;;;;;;;;;;12.50;72.20;;;;;;5048227;28;19982;-72
2023/04/11 10:50:32;;;;;;;;;;;12.50;72.30;;;;;;5057079;28;20496;-70
2023/04/11 10:53:00;;;;;;;;;;;12.50;72.50;;;;;;5049501;28;20047;-72
2023/04/11 10:55:28;;;;;;;;;;;12.60;72.70;;;;;;5050031;28;20290;-73
2023/04/11 10:58:04;;;;;;;;;;;12.60;72.20;;;;;;5055729;28;19936;-71
2023/04/11 11:00:54;;;;;;;;;;;12.60;72.10;;;;;;5047348;28;19983;-70
2023/04/11 11:03:21;;;;;;;;;;;12.70;71.40;;;;;;5054606;28;20038;-70
2023/04/11 11:05:48;;;;;;;;;;;12.70;70.00;;;;;;5053611;28;19938;-70
2023/04/11 11:08:26;;;;;;;;;;;12.70;70.10;;;;;;5060229;28;19937;-72
2023/04/11 11:10:52;;;;;;;;;;;12.70;69.60;;;;;;5057951;28;19962;-69
2023/04/11 11:13:19;;;;;;;;;;;12.70;69.60;;;;;;5051340;28;19940;-70
2023/04/11 11:15:49;;;;;;;;;;;12.70;69.50;;;;;;5056444;28;20325;-72
2023/04/11 11:18:16;;;;;;;;;;;12.70;69.30;;;;;;5061515;28;19932;-72
2023/04/11 11:20:42;;;;;;;;;;;12.70;69.30;;;;;;5051904;28;19935;-72
2023/04/11 11:23:10;;;;;;;;;;;12.70;69.30;;;;;;5047500;28;19994;-72
2023/04/11 11:25:38;;;;;;;;;;;12.70;69.90;;;;;;5058697;28;19937;-71
2023/04/11 11:28:05;;;;;;;;;;;12.70;70.60;;;;;;5055626;28;19932;-68
2023/04/11 11:30:32;;;;;;;;;;;12.70;70.90;;;;;;5050294;28;19936;-69
2023/04/11 11:32:59;;;;;;;;;;;12.70;72.70;;;;;;5051424;28;20399;-71
2023/04/11 11:35:25;;;;;;;;;;;12.60;73.40;;;;;;5051417;28;19929;-72
2023/04/11 11:37:54;;;;;;;;;;;12.60;75.00;;;;;;5055262;28;21293;-71
2023/04/11 11:40:21;;;;;;;;;;;12.70;75.20;;;;;;5056446;28;19936;-70
2023/04/11 11:42:51;;;;;;;;;;;12.70;75.30;;;;;;5059854;28;20661;-71
2023/04/11 11:45:18;;;;;;;;;;;12.70;75.00;;;;;;5059405;28;19950;-71
2023/04/11 11:47:45;;;;;;;;;;;12.80;74.70;;;;;;5053190;28;19928;-72
2023/04/11 11:50:23;;;;;;;;;;;12.90;74.40;;;;;;5047762;28;19939;-72
2023/04/11 11:52:50;;;;;;;;;;;13.00;73.70;;;;;;5052125;28;19936;-70
2023/04/11 11:55:29;;;;;;;;;;;13.00;73.00;;;;;;5049257;28;19929;-72
2023/04/11 11:58:00;;;;;;;;;;;13.10;72.40;;;;;;5052837;28;19968;-72
2023/04/11 12:00:27;;;;;;;;;;;13.20;72.10;;;;;;5062630;28;19928;-70
2023/04/11 12:02:55;;;;;;;;;;;13.20;71.90;;;;;;5050175;28;19929;-70
2023/04/11 12:05:23;;;;;;;;;;;13.20;71.60;;;;;;5051457;28;19933;-69
2023/04/11 12:07:53;;;;;;;;;;;13.30;71.50;;;;;;5054307;28;20700;-69
2023/04/11 12:10:20;;;;;;;;;;;13.40;71.00;;;;;;5049684;28;19932;-69
2023/04/11 12:12:48;;;;;;;;;;;13.40;70.70;;;;;;5047950;28;19935;-69
2023/04/11 12:15:17;;;;;;;;;;;13.50;70.30;;;;;;5053172;28;19929;-72
2023/04/11 12:17:47;;;;;;;;;;;13.60;69.70;;;;;;5057254;28;19936;-69
2023/04/11 12:20:14;;;;;;;;;;;13.50;69.10;;;;;;5054491;28;19928;-72
2023/04/11 12:22:41;;;;;;;;;;;13.60;69.10;;;;;;5054166;28;19956;-71
2023/04/11 12:25:08;;;;;;;;;;;13.60;69.10;;;;;;5051380;28;19936;-70
2023/04/11 12:27:36;;;;;;;;;;;13.60;68.80;;;;;;5058403;28;19940;-69
2023/04/11 12:30:02;;;;;;;;;;;13.50;69.40;;;;;;5059628;28;19973;-69
2023/04/11 12:32:32;;;;;;;;;;;13.50;69.10;;;;;;5052242;28;20390;-70
2023/04/11 12:34:59;;;;;;;;;;;13.50;68.50;;;;;;5052857;28;19935;-72
2023/04/11 12:37:25;;;;;;;;;;;13.50;68.60;;;;;;5054965;28;19987;-70
2023/04/11 12:39:52;;;;;;;;;;;13.50;68.80;;;;;;5051796;28;20023;-71
2023/04/11 12:42:18;;;;;;;;;;;13.60;68.80;;;;;;5052699;28;19928;-70
2023/04/11 12:44:46;;;;;;;;;;;13.60;68.40;;;;;;5052684;28;20530;-72
2023/04/11 12:47:13;;;;;;;;;;;13.70;68.20;;;;;;5051125;28;19984;-72
2023/04/11 12:49:40;;;;;;;;;;;13.80;68.20;;;;;;5054379;28;20065;-72
2023/04/11 12:52:07;;;;;;;;;;;13.80;67.50;;;;;;5044936;28;20334;-71
2023/04/11 12:54:34;;;;;;;;;;;13.90;67.40;;;;;;5051475;28;19938;-72
2023/04/11 12:57:00;;;;;;;;;;;14.00;67.10;;;;;;5049869;28;19928;-71
2023/04/11 12:59:27;;;;;;;;;;;14.00;66.70;;;;;;5051609;28;19932;-70
2023/04/11 13:01:53;;;;;;;;;;;14.00;66.30;;;;;;5057293;28;19928;-69
2023/04/11 13:04:20;;;;;;;;;;;14.10;65.70;;;;;;5051677;28;19936;-71
2023/04/11 13:06:48;;;;;;;;;;;14.10;65.30;;;;;;5051067;28;19982;-74
2023/04/11 13:09:14;;;;;;;;;;;14.10;65.30;;;;;;5055269;28;19935;-71
2023/04/11 13:11:41;;;;;;;;;;;14.10;65.90;;;;;;5054714;28;19951;-72
2023/04/11 13:14:07;;;;;;;;;;;14.00;66.20;;;;;;5057272;28;19928;-68
2023/04/11 13:16:34;;;;;;;;;;;13.90;66.30;;;;;;5050904;28;19947;-71
2023/04/11 13:19:00;;;;;;;;;;;13.90;66.60;;;;;;5053317;28;19929;-70
2023/04/11 13:21:27;;;;;;;;;;;13.90;66.60;;;;;;5053193;28;19932;-72
2023/04/11 13:23:55;;;;;;;;;;;13.90;66.80;;;;;;5051920;28;19944;-71
2023/04/11 13:26:22;;;;;;;;;;;13.90;67.20;;;;;;5053382;28;20029;-73
2023/04/11 13:28:48;;;;;;;;;;;13.90;67.30;;;;;;5048997;28;19932;-69
2023/04/11 13:31:15;;;;;;;;;;;14.00;67.10;;;;;;5052437;28;20318;-73
2023/04/11 13:33:43;;;;;;;;;;;14.10;66.60;;;;;;5046198;28;19979;-72
2023/04/11 13:36:10;;;;;;;;;;;14.10;66.20;;;;;;5058493;28;20576;-72
2023/04/11 13:38:37;;;;;;;;;;;14.20;66.10;;;;;;5053572;28;19929;-72
2023/04/11 13:41:05;;;;;;;;;;;14.30;65.10;;;;;;5050678;28;19951;-70
2023/04/11 13:43:31;;;;;;;;;;;14.30;65.20;;;;;;5054006;28;19933;-73
2023/04/11 13:45:58;;;;;;;;;;;14.40;64.70;;;;;;5055365;28;19928;-71
2023/04/11 13:48:25;;;;;;;;;;;14.50;63.70;;;;;;5050360;28;19936;-71
2023/04/11 13:50:51;;;;;;;;;;;14.50;63.30;;;;;;5058228;28;19959;-70
2023/04/11 13:53:18;;;;;;;;;;;14.60;63.10;;;;;;5058882;28;20627;-71
2023/04/11 13:55:47;;;;;;;;;;;14.60;63.40;;;;;;5049693;28;19954;-72
2023/04/11 13:58:15;;;;;;;;;;;14.70;63.60;;;;;;5053966;28;19930;-72
2023/04/11 14:00:41;;;;;;;;;;;14.70;63.50;;;;;;5060118;28;20747;-69
2023/04/11 14:03:08;;;;;;;;;;;14.80;63.20;;;;;;5061165;28;19982;-72
2023/04/11 14:05:35;;;;;;;;;;;14.80;63.30;;;;;;5054101;28;19963;-68
2023/04/11 14:08:02;;;;;;;;;;;14.80;63.20;;;;;;5055247;28;19929;-70
2023/04/11 14:10:28;;;;;;;;;;;14.80;62.90;;;;;;5057536;28;19929;-71
2023/04/11 14:12:55;;;;;;;;;;;14.90;62.40;;;;;;5061576;28;19932;-71
2023/04/11 14:15:23;;;;;;;;;;;14.90;61.90;;;;;;5055271;28;19935;-73
2023/04/11 14:17:49;;;;;;;;;;;14.90;62.20;;;;;;5049993;28;20372;-70
2023/04/11 14:20:16;;;;;;;;;;;15.00;62.00;;;;;;5049967;28;20927;-72
2023/04/11 14:22:42;;;;;;;;;;;15.00;60.60;;;;;;5057696;28;20593;-70